sensor_id;sensor_type;location;lat;lon;timestamp;temperature;humidity
16347;DHT22;8283;48.504;13.734;2023-04-29T00:02:13;16.60;65.60
16347;DHT22;8283;48.504;13.734;2023-04-29T00:04:58;16.60;65.60
16347;DHT22;8283;48.504;13.734;2023-04-29T00:07:42;16.60;65.60
16347;DHT22;8283;48.504;13.734;2023-04-29T00:10:26;16.60;65.60
16347;DHT22;8283;48.504;13.734;2023-04-29T00:13:10;16.60;65.60
16347;DHT22;8283;48.504;13.734;2023-04-29T00:15:56;16.60;65.60
16347;DHT22;8283;48.504;13.734;2023-04-29T00:18:40;16.70;65.80
16347;DHT22;8283;48.504;13.734;2023-04-29T00:21:25;16.60;65.60
16347;DHT22;8283;48.504;13.734;2023-04-29T00:24:10;16.70;65.80
16347;DHT22;8283;48.504;13.734;2023-04-29T00:26:54;16.70;65.80
16347;DHT22;8283;48.504;13.734;2023-04-29T00:29:38;16.70;65.80
16347;DHT22;8283;48.504;13.734;2023-04-29T00:32:22;16.70;65.80
16347;DHT22;8283;48.504;13.734;2023-04-29T00:35:07;16.70;65.90
16347;DHT22;8283;48.504;13.734;2023-04-29T00:37:52;16.70;65.90
16347;DHT22;8283;48.504;13.734;2023-04-29T00:40:37;16.70;65.90
16347;DHT22;8283;48.504;13.734;2023-04-29T00:43:21;16.70;66.00
16347;DHT22;8283;48.504;13.734;2023-04-29T00:46:06;16.70;66.00
16347;DHT22;8283;48.504;13.734;2023-04-29T00:48:50;16.70;66.00
16347;DHT22;8283;48.504;13.734;2023-04-29T00:51:36;16.70;66.10
16347;DHT22;8283;48.504;13.734;2023-04-29T00:54:21;16.70;66.10
16347;DHT22;8283;48.504;13.734;2023-04-29T00:57:05;16.70;66.10
16347;DHT22;8283;48.504;13.734;2023-04-29T00:59:50;16.70;66.70
16347;DHT22;8283;48.504;13.734;2023-04-29T01:02:35;16.70;66.10
16347;DHT22;8283;48.504;13.734;2023-04-29T01:05:19;16.80;66.10
16347;DHT22;8283;48.504;13.734;2023-04-29T01:11:08;16.70;66.30
16347;DHT22;8283;48.504;13.734;2023-04-29T01:13:58;16.70;66.40
16347;DHT22;8283;48.504;13.734;2023-04-29T01:16:51;16.70;66.90
16347;DHT22;8283;48.504;13.734;2023-04-29T01:19:54;16.70;66.80
16347;DHT22;8283;48.504;13.734;2023-04-29T01:22:39;16.70;68.30
16347;DHT22;8283;48.504;13.734;2023-04-29T01:25:24;16.70;66.30
16347;DHT22;8283;48.504;13.734;2023-04-29T01:31:45;16.70;68.70
16347;DHT22;8283;48.504;13.734;2023-04-29T01:34:46;16.70;68.30
16347;DHT22;8283;48.504;13.734;2023-04-29T01:37:46;16.70;68.20
16347;DHT22;8283;48.504;13.734;2023-04-29T01:40:42;16.70;67.80
16347;DHT22;8283;48.504;13.734;2023-04-29T01:43:34;16.70;67.20
16347;DHT22;8283;48.504;13.734;2023-04-29T01:46:28;16.70;66.90
16347;DHT22;8283;48.504;13.734;2023-04-29T01:49:14;16.70;66.60
16347;DHT22;8283;48.504;13.734;2023-04-29T01:51:59;16.70;66.60
16347;DHT22;8283;48.504;13.734;2023-04-29T01:54:44;16.80;66.80
16347;DHT22;8283;48.504;13.734;2023-04-29T01:57:29;16.80;66.90
16347;DHT22;8283;48.504;13.734;2023-04-29T02:00:23;16.80;66.70
16347;DHT22;8283;48.504;13.734;2023-04-29T02:03:09;16.80;66.70
16347;DHT22;8283;48.504;13.734;2023-04-29T02:05:57;16.80;66.80
16347;DHT22;8283;48.504;13.734;2023-04-29T02:08:42;16.80;66.90
16347;DHT22;8283;48.504;13.734;2023-04-29T02:11:27;16.90;67.00
16347;DHT22;8283;48.504;13.734;2023-04-29T02:14:14;16.80;67.10
16347;DHT22;8283;48.504;13.734;2023-04-29T02:17:00;16.80;67.10
16347;DHT22;8283;48.504;13.734;2023-04-29T02:19:44;16.80;67.10
16347;DHT22;8283;48.504;13.734;2023-04-29T02:22:29;16.80;67.00
16347;DHT22;8283;48.504;13.734;2023-04-29T02:25:14;16.80;66.90
16347;DHT22;8283;48.504;13.734;2023-04-29T02:27:59;16.80;66.90
16347;DHT22;8283;48.504;13.734;2023-04-29T02:30:43;16.80;66.90
16347;DHT22;8283;48.504;13.734;2023-04-29T02:33:28;16.80;67.00
16347;DHT22;8283;48.504;13.734;2023-04-29T02:36:12;16.80;67.10
16347;DHT22;8283;48.504;13.734;2023-04-29T02:38:57;16.80;67.30
16347;DHT22;8283;48.504;13.734;2023-04-29T02:41:43;16.80;67.50
16347;DHT22;8283;48.504;13.734;2023-04-29T02:44:28;16.80;67.40
16347;DHT22;8283;48.504;13.734;2023-04-29T02:47:15;16.80;67.40
16347;DHT22;8283;48.504;13.734;2023-04-29T02:49:59;16.80;67.30
16347;DHT22;8283;48.504;13.734;2023-04-29T02:52:44;16.80;67.30
16347;DHT22;8283;48.504;13.734;2023-04-29T02:55:28;16.80;67.30
16347;DHT22;8283;48.504;13.734;2023-04-29T02:58:16;16.80;67.30
16347;DHT22;8283;48.504;13.734;2023-04-29T03:01:01;16.80;67.50
16347;DHT22;8283;48.504;13.734;2023-04-29T03:03:45;16.80;67.50
16347;DHT22;8283;48.504;13.734;2023-04-29T03:06:30;16.70;67.90
16347;DHT22;8283;48.504;13.734;2023-04-29T03:09:14;16.80;67.70
16347;DHT22;8283;48.504;13.734;2023-04-29T03:12:01;16.70;67.70
16347;DHT22;8283;48.504;13.734;2023-04-29T03:14:47;16.70;67.60
16347;DHT22;8283;48.504;13.734;2023-04-29T03:17:32;16.90;67.80
16347;DHT22;8283;48.504;13.734;2023-04-29T03:20:18;16.80;67.80
16347;DHT22;8283;48.504;13.734;2023-04-29T03:23:03;16.80;67.90
16347;DHT22;8283;48.504;13.734;2023-04-29T03:25:48;16.80;67.90
16347;DHT22;8283;48.504;13.734;2023-04-29T03:28:33;16.80;67.90
16347;DHT22;8283;48.504;13.734;2023-04-29T03:31:17;16.80;68.00
16347;DHT22;8283;48.504;13.734;2023-04-29T03:34:03;16.80;68.00
16347;DHT22;8283;48.504;13.734;2023-04-29T03:36:51;16.80;67.90
16347;DHT22;8283;48.504;13.734;2023-04-29T03:39:35;16.80;68.00
16347;DHT22;8283;48.504;13.734;2023-04-29T03:42:19;16.80;68.00
16347;DHT22;8283;48.504;13.734;2023-04-29T03:45:04;16.80;68.00
16347;DHT22;8283;48.504;13.734;2023-04-29T03:47:49;16.80;68.10
16347;DHT22;8283;48.504;13.734;2023-04-29T03:50:36;16.90;68.20
16347;DHT22;8283;48.504;13.734;2023-04-29T03:53:21;16.90;68.20
16347;DHT22;8283;48.504;13.734;2023-04-29T03:56:06;16.90;68.10
16347;DHT22;8283;48.504;13.734;2023-04-29T03:58:51;16.90;68.20
16347;DHT22;8283;48.504;13.734;2023-04-29T04:01:37;16.90;68.30
16347;DHT22;8283;48.504;13.734;2023-04-29T04:04:22;16.90;68.20
16347;DHT22;8283;48.504;13.734;2023-04-29T04:07:08;16.90;68.20
16347;DHT22;8283;48.504;13.734;2023-04-29T04:10:11;16.90;68.20
16347;DHT22;8283;48.504;13.734;2023-04-29T04:12:56;17.00;68.30
16347;DHT22;8283;48.504;13.734;2023-04-29T04:15:41;17.00;68.40
16347;DHT22;8283;48.504;13.734;2023-04-29T04:18:25;17.00;68.50
16347;DHT22;8283;48.504;13.734;2023-04-29T04:21:11;17.00;68.50
16347;DHT22;8283;48.504;13.734;2023-04-29T04:23:57;17.00;68.70
16347;DHT22;8283;48.504;13.734;2023-04-29T04:26:42;17.00;68.70
16347;DHT22;8283;48.504;13.734;2023-04-29T04:29:36;17.10;68.70
16347;DHT22;8283;48.504;13.734;2023-04-29T04:32:40;17.10;68.60
16347;DHT22;8283;48.504;13.734;2023-04-29T04:35:25;17.10;68.60
16347;DHT22;8283;48.504;13.734;2023-04-29T04:38:09;17.20;68.70
16347;DHT22;8283;48.504;13.734;2023-04-29T04:40:58;16.90;68.60
16347;DHT22;8283;48.504;13.734;2023-04-29T04:43:52;17.20;68.70
16347;DHT22;8283;48.504;13.734;2023-04-29T04:46:46;17.20;68.70
16347;DHT22;8283;48.504;13.734;2023-04-29T04:49:35;17.30;68.80
16347;DHT22;8283;48.504;13.734;2023-04-29T04:52:20;17.20;68.90
16347;DHT22;8283;48.504;13.734;2023-04-29T04:55:10;17.30;69.10
16347;DHT22;8283;48.504;13.734;2023-04-29T04:57:55;17.30;69.00
16347;DHT22;8283;48.504;13.734;2023-04-29T05:00:43;17.40;68.90
16347;DHT22;8283;48.504;13.734;2023-04-29T05:03:28;17.40;69.30
16347;DHT22;8283;48.504;13.734;2023-04-29T05:06:12;17.40;68.60
16347;DHT22;8283;48.504;13.734;2023-04-29T05:08:59;17.50;68.40
16347;DHT22;8283;48.504;13.734;2023-04-29T05:11:43;17.40;68.30
16347;DHT22;8283;48.504;13.734;2023-04-29T05:14:31;17.40;68.40
16347;DHT22;8283;48.504;13.734;2023-04-29T05:17:15;17.40;68.50
16347;DHT22;8283;48.504;13.734;2023-04-29T05:20:00;17.40;68.60
16347;DHT22;8283;48.504;13.734;2023-04-29T05:22:45;17.40;68.70
16347;DHT22;8283;48.504;13.734;2023-04-29T05:25:30;17.40;68.70
16347;DHT22;8283;48.504;13.734;2023-04-29T05:28:15;17.50;68.90
16347;DHT22;8283;48.504;13.734;2023-04-29T05:31:00;17.40;69.00
16347;DHT22;8283;48.504;13.734;2023-04-29T05:33:45;17.50;69.00
16347;DHT22;8283;48.504;13.734;2023-04-29T05:36:30;17.50;68.90
16347;DHT22;8283;48.504;13.734;2023-04-29T05:39:15;17.50;69.00
16347;DHT22;8283;48.504;13.734;2023-04-29T05:42:01;17.50;68.90
16347;DHT22;8283;48.504;13.734;2023-04-29T05:44:54;17.60;69.10
16347;DHT22;8283;48.504;13.734;2023-04-29T05:47:39;17.60;69.20
16347;DHT22;8283;48.504;13.734;2023-04-29T05:50:23;17.60;69.20
16347;DHT22;8283;48.504;13.734;2023-04-29T05:53:09;17.60;69.20
16347;DHT22;8283;48.504;13.734;2023-04-29T05:55:55;17.70;69.20
16347;DHT22;8283;48.504;13.734;2023-04-29T05:58:40;17.70;69.40
16347;DHT22;8283;48.504;13.734;2023-04-29T06:01:25;17.70;69.50
16347;DHT22;8283;48.504;13.734;2023-04-29T06:04:09;17.80;69.70
16347;DHT22;8283;48.504;13.734;2023-04-29T06:07:09;17.80;69.60
16347;DHT22;8283;48.504;13.734;2023-04-29T06:10:06;17.80;69.50
16347;DHT22;8283;48.504;13.734;2023-04-29T06:12:51;17.90;69.60
16347;DHT22;8283;48.504;13.734;2023-04-29T06:15:35;17.90;69.70
16347;DHT22;8283;48.504;13.734;2023-04-29T06:18:20;18.00;69.70
16347;DHT22;8283;48.504;13.734;2023-04-29T06:21:05;18.00;69.70
16347;DHT22;8283;48.504;13.734;2023-04-29T06:23:49;18.10;69.70
16347;DHT22;8283;48.504;13.734;2023-04-29T06:26:34;18.20;69.80
16347;DHT22;8283;48.504;13.734;2023-04-29T06:29:20;18.20;69.70
16347;DHT22;8283;48.504;13.734;2023-04-29T06:32:04;18.30;69.70
16347;DHT22;8283;48.504;13.734;2023-04-29T06:34:49;18.30;69.60
16347;DHT22;8283;48.504;13.734;2023-04-29T06:37:44;18.30;69.50
16347;DHT22;8283;48.504;13.734;2023-04-29T06:40:46;18.40;69.70
16347;DHT22;8283;48.504;13.734;2023-04-29T06:43:59;18.40;69.80
16347;DHT22;8283;48.504;13.734;2023-04-29T06:46:56;18.50;70.00
16347;DHT22;8283;48.504;13.734;2023-04-29T06:50:00;18.60;69.90
16347;DHT22;8283;48.504;13.734;2023-04-29T06:52:45;18.60;69.60
16347;DHT22;8283;48.504;13.734;2023-04-29T06:55:29;18.70;69.50
16347;DHT22;8283;48.504;13.734;2023-04-29T06:58:15;18.70;69.50
16347;DHT22;8283;48.504;13.734;2023-04-29T07:01:00;18.70;69.50
16347;DHT22;8283;48.504;13.734;2023-04-29T07:03:47;18.80;69.70
16347;DHT22;8283;48.504;13.734;2023-04-29T07:06:31;18.90;69.90
16347;DHT22;8283;48.504;13.734;2023-04-29T07:09:16;18.90;69.80
16347;DHT22;8283;48.504;13.734;2023-04-29T07:12:01;19.00;69.80
16347;DHT22;8283;48.504;13.734;2023-04-29T07:14:45;19.00;69.90
16347;DHT22;8283;48.504;13.734;2023-04-29T07:17:31;19.10;70.00
16347;DHT22;8283;48.504;13.734;2023-04-29T07:20:16;19.10;70.10
16347;DHT22;8283;48.504;13.734;2023-04-29T07:23:01;19.20;70.00
16347;DHT22;8283;48.504;13.734;2023-04-29T07:25:46;19.40;69.80
16347;DHT22;8283;48.504;13.734;2023-04-29T07:28:30;19.40;69.80
16347;DHT22;8283;48.504;13.734;2023-04-29T07:31:15;19.40;69.90
16347;DHT22;8283;48.504;13.734;2023-04-29T07:33:59;19.50;69.90
16347;DHT22;8283;48.504;13.734;2023-04-29T07:36:44;19.60;70.00
16347;DHT22;8283;48.504;13.734;2023-04-29T07:39:29;19.70;70.20
16347;DHT22;8283;48.504;13.734;2023-04-29T07:42:15;19.70;70.10
16347;DHT22;8283;48.504;13.734;2023-04-29T07:44:59;19.80;70.50
16347;DHT22;8283;48.504;13.734;2023-04-29T07:47:44;19.90;70.90
16347;DHT22;8283;48.504;13.734;2023-04-29T07:50:29;20.20;71.10
16347;DHT22;8283;48.504;13.734;2023-04-29T07:53:13;20.20;71.30
16347;DHT22;8283;48.504;13.734;2023-04-29T07:56:04;20.30;71.60
16347;DHT22;8283;48.504;13.734;2023-04-29T07:58:48;20.60;71.00
16347;DHT22;8283;48.504;13.734;2023-04-29T08:01:33;20.70;70.50
16347;DHT22;8283;48.504;13.734;2023-04-29T08:04:17;20.80;69.80
16347;DHT22;8283;48.504;13.734;2023-04-29T08:07:11;20.80;69.30
16347;DHT22;8283;48.504;13.734;2023-04-29T08:10:05;20.90;68.50
16347;DHT22;8283;48.504;13.734;2023-04-29T08:12:50;20.90;67.90
16347;DHT22;8283;48.504;13.734;2023-04-29T08:15:34;20.90;67.90
16347;DHT22;8283;48.504;13.734;2023-04-29T08:18:19;20.80;67.80
16347;DHT22;8283;48.504;13.734;2023-04-29T08:21:04;20.90;68.10
16347;DHT22;8283;48.504;13.734;2023-04-29T08:23:49;20.80;67.90
16347;DHT22;8283;48.504;13.734;2023-04-29T08:26:33;20.80;67.80
16347;DHT22;8283;48.504;13.734;2023-04-29T08:29:17;20.70;67.70
16347;DHT22;8283;48.504;13.734;2023-04-29T08:32:02;20.70;67.70
16347;DHT22;8283;48.504;13.734;2023-04-29T08:34:46;20.70;67.70
16347;DHT22;8283;48.504;13.734;2023-04-29T08:37:31;20.70;67.60
16347;DHT22;8283;48.504;13.734;2023-04-29T08:40:15;20.70;67.60
16347;DHT22;8283;48.504;13.734;2023-04-29T08:43:00;20.70;67.70
16347;DHT22;8283;48.504;13.734;2023-04-29T08:45:47;20.70;67.70
16347;DHT22;8283;48.504;13.734;2023-04-29T08:48:31;20.80;67.80
16347;DHT22;8283;48.504;13.734;2023-04-29T08:51:17;20.60;67.80
16347;DHT22;8283;48.504;13.734;2023-04-29T08:54:02;20.70;68.10
16347;DHT22;8283;48.504;13.734;2023-04-29T08:56:47;20.70;68.20
16347;DHT22;8283;48.504;13.734;2023-04-29T08:59:32;20.70;68.20
16347;DHT22;8283;48.504;13.734;2023-04-29T09:02:17;20.90;68.10
16347;DHT22;8283;48.504;13.734;2023-04-29T09:05:08;20.70;67.90
16347;DHT22;8283;48.504;13.734;2023-04-29T09:07:56;20.80;68.20
16347;DHT22;8283;48.504;13.734;2023-04-29T09:10:42;20.80;68.10
16347;DHT22;8283;48.504;13.734;2023-04-29T09:13:29;21.00;68.50
16347;DHT22;8283;48.504;13.734;2023-04-29T09:16:14;20.80;68.40
16347;DHT22;8283;48.504;13.734;2023-04-29T09:18:59;21.00;69.30
16347;DHT22;8283;48.504;13.734;2023-04-29T09:21:53;21.00;69.00
16347;DHT22;8283;48.504;13.734;2023-04-29T09:24:39;21.30;69.90
16347;DHT22;8283;48.504;13.734;2023-04-29T09:27:26;21.30;69.90
16347;DHT22;8283;48.504;13.734;2023-04-29T09:30:12;21.60;69.90
16347;DHT22;8283;48.504;13.734;2023-04-29T09:33:08;21.60;70.10
16347;DHT22;8283;48.504;13.734;2023-04-29T09:35:53;21.90;69.50
16347;DHT22;8283;48.504;13.734;2023-04-29T09:38:52;22.00;69.40
16347;DHT22;8283;48.504;13.734;2023-04-29T09:41:42;22.30;69.10
16347;DHT22;8283;48.504;13.734;2023-04-29T09:44:41;22.50;70.30
16347;DHT22;8283;48.504;13.734;2023-04-29T09:47:29;22.60;70.60
16347;DHT22;8283;48.504;13.734;2023-04-29T09:50:15;22.90;70.10
16347;DHT22;8283;48.504;13.734;2023-04-29T09:52:59;23.20;70.10
16347;DHT22;8283;48.504;13.734;2023-04-29T09:58:37;23.70;66.50
16347;DHT22;8283;48.504;13.734;2023-04-29T10:01:26;23.80;67.10
16347;DHT22;8283;48.504;13.734;2023-04-29T10:04:12;24.00;65.70
16347;DHT22;8283;48.504;13.734;2023-04-29T10:06:58;24.00;65.70
16347;DHT22;8283;48.504;13.734;2023-04-29T10:09:45;24.10;67.40
16347;DHT22;8283;48.504;13.734;2023-04-29T10:12:34;24.30;69.10
16347;DHT22;8283;48.504;13.734;2023-04-29T10:15:46;24.70;70.10
16347;DHT22;8283;48.504;13.734;2023-04-29T10:18:35;25.20;67.20
16347;DHT22;8283;48.504;13.734;2023-04-29T10:21:26;25.60;70.20
16347;DHT22;8283;48.504;13.734;2023-04-29T10:24:11;26.10;69.10
16347;DHT22;8283;48.504;13.734;2023-04-29T10:26:57;26.50;68.10
16347;DHT22;8283;48.504;13.734;2023-04-29T10:29:43;26.90;67.50
16347;DHT22;8283;48.504;13.734;2023-04-29T10:32:29;27.30;67.40
16347;DHT22;8283;48.504;13.734;2023-04-29T10:35:15;27.60;66.40
16347;DHT22;8283;48.504;13.734;2023-04-29T10:38:05;28.00;65.80
16347;DHT22;8283;48.504;13.734;2023-04-29T10:40:52;28.30;62.50
16347;DHT22;8283;48.504;13.734;2023-04-29T10:43:39;28.60;62.60
16347;DHT22;8283;48.504;13.734;2023-04-29T10:47:19;28.70;58.50
16347;DHT22;8283;48.504;13.734;2023-04-29T10:50:04;28.80;53.40
16347;DHT22;8283;48.504;13.734;2023-04-29T10:52:54;28.80;59.30
16347;DHT22;8283;48.504;13.734;2023-04-29T10:55:40;29.00;59.10
16347;DHT22;8283;48.504;13.734;2023-04-29T10:58:38;29.10;60.90
16347;DHT22;8283;48.504;13.734;2023-04-29T11:01:49;29.40;57.90
16347;DHT22;8283;48.504;13.734;2023-04-29T11:04:33;29.80;57.10
16347;DHT22;8283;48.504;13.734;2023-04-29T11:07:28;30.10;60.10
16347;DHT22;8283;48.504;13.734;2023-04-29T11:10:13;30.40;54.30
16347;DHT22;8283;48.504;13.734;2023-04-29T11:13:29;30.60;57.30
16347;DHT22;8283;48.504;13.734;2023-04-29T11:16:14;31.00;53.20
16347;DHT22;8283;48.504;13.734;2023-04-29T11:19:08;31.10;54.30
16347;DHT22;8283;48.504;13.734;2023-04-29T11:22:07;31.30;52.20
16347;DHT22;8283;48.504;13.734;2023-04-29T11:24:54;31.40;53.00
16347;DHT22;8283;48.504;13.734;2023-04-29T11:27:39;31.70;55.10
16347;DHT22;8283;48.504;13.734;2023-04-29T11:30:27;32.00;53.30
16347;DHT22;8283;48.504;13.734;2023-04-29T11:33:12;32.20;51.30
16347;DHT22;8283;48.504;13.734;2023-04-29T11:35:57;32.30;49.10
16347;DHT22;8283;48.504;13.734;2023-04-29T11:38:42;32.30;50.70
16347;DHT22;8283;48.504;13.734;2023-04-29T11:41:27;32.40;50.60
16347;DHT22;8283;48.504;13.734;2023-04-29T11:44:11;32.50;50.50
16347;DHT22;8283;48.504;13.734;2023-04-29T11:47:06;32.70;49.50
16347;DHT22;8283;48.504;13.734;2023-04-29T11:49:50;32.90;48.10
16347;DHT22;8283;48.504;13.734;2023-04-29T11:52:37;33.10;50.40
16347;DHT22;8283;48.504;13.734;2023-04-29T11:55:22;33.50;49.60
16347;DHT22;8283;48.504;13.734;2023-04-29T11:58:06;33.80;50.60
16347;DHT22;8283;48.504;13.734;2023-04-29T12:00:50;34.20;48.90
16347;DHT22;8283;48.504;13.734;2023-04-29T12:03:34;34.50;48.60
16347;DHT22;8283;48.504;13.734;2023-04-29T12:06:19;34.80;48.00
16347;DHT22;8283;48.504;13.734;2023-04-29T12:09:03;34.90;43.90
16347;DHT22;8283;48.504;13.734;2023-04-29T12:11:48;34.80;44.20
16347;DHT22;8283;48.504;13.734;2023-04-29T12:14:34;34.60;43.90
16347;DHT22;8283;48.504;13.734;2023-04-29T12:17:19;34.40;42.40
16347;DHT22;8283;48.504;13.734;2023-04-29T12:20:05;34.10;41.50
16347;DHT22;8283;48.504;13.734;2023-04-29T12:22:50;33.80;42.40
16347;DHT22;8283;48.504;13.734;2023-04-29T12:25:35;33.40;41.20
16347;DHT22;8283;48.504;13.734;2023-04-29T12:28:19;33.00;41.80
16347;DHT22;8283;48.504;13.734;2023-04-29T12:31:04;32.60;41.50
16347;DHT22;8283;48.504;13.734;2023-04-29T12:33:53;32.10;41.00
16347;DHT22;8283;48.504;13.734;2023-04-29T12:36:41;31.60;40.40
16347;DHT22;8283;48.504;13.734;2023-04-29T12:39:26;31.10;40.60
16347;DHT22;8283;48.504;13.734;2023-04-29T12:42:14;30.50;41.10
16347;DHT22;8283;48.504;13.734;2023-04-29T12:45:00;30.00;41.70
16347;DHT22;8283;48.504;13.734;2023-04-29T12:47:44;29.40;42.00
16347;DHT22;8283;48.504;13.734;2023-04-29T12:50:31;28.90;42.30
16347;DHT22;8283;48.504;13.734;2023-04-29T12:53:16;28.50;42.60
16347;DHT22;8283;48.504;13.734;2023-04-29T12:56:00;28.00;43.20
16347;DHT22;8283;48.504;13.734;2023-04-29T12:58:45;27.60;43.50
16347;DHT22;8283;48.504;13.734;2023-04-29T13:01:29;27.30;44.00
16347;DHT22;8283;48.504;13.734;2023-04-29T13:04:14;27.20;44.50
16347;DHT22;8283;48.504;13.734;2023-04-29T13:06:58;27.10;44.90
16347;DHT22;8283;48.504;13.734;2023-04-29T13:09:47;27.00;45.40
16347;DHT22;8283;48.504;13.734;2023-04-29T13:12:32;27.00;46.30
16347;DHT22;8283;48.504;13.734;2023-04-29T13:15:16;27.20;47.30
16347;DHT22;8283;48.504;13.734;2023-04-29T13:18:01;27.50;47.90
16347;DHT22;8283;48.504;13.734;2023-04-29T13:20:46;27.90;48.60
16347;DHT22;8283;48.504;13.734;2023-04-29T13:23:30;28.40;49.00
16347;DHT22;8283;48.504;13.734;2023-04-29T13:26:15;28.90;48.50
16347;DHT22;8283;48.504;13.734;2023-04-29T13:28:59;29.40;48.20
16347;DHT22;8283;48.504;13.734;2023-04-29T13:31:43;29.90;46.80
16347;DHT22;8283;48.504;13.734;2023-04-29T13:34:28;30.30;45.10
16347;DHT22;8283;48.504;13.734;2023-04-29T13:37:12;30.50;44.90
16347;DHT22;8283;48.504;13.734;2023-04-29T13:39:56;30.70;44.10
16347;DHT22;8283;48.504;13.734;2023-04-29T13:42:41;30.80;44.50
16347;DHT22;8283;48.504;13.734;2023-04-29T13:45:25;30.90;44.00
16347;DHT22;8283;48.504;13.734;2023-04-29T13:48:09;31.00;43.50
16347;DHT22;8283;48.504;13.734;2023-04-29T13:50:54;31.10;44.00
16347;DHT22;8283;48.504;13.734;2023-04-29T13:53:38;31.30;43.60
16347;DHT22;8283;48.504;13.734;2023-04-29T13:56:23;31.40;44.00
16347;DHT22;8283;48.504;13.734;2023-04-29T13:59:09;31.40;43.40
16347;DHT22;8283;48.504;13.734;2023-04-29T14:01:57;31.50;42.60
16347;DHT22;8283;48.504;13.734;2023-04-29T14:04:42;31.40;41.70
16347;DHT22;8283;48.504;13.734;2023-04-29T14:07:26;31.20;41.90
16347;DHT22;8283;48.504;13.734;2023-04-29T14:10:10;31.00;42.40
16347;DHT22;8283;48.504;13.734;2023-04-29T14:12:54;30.80;42.60
16347;DHT22;8283;48.504;13.734;2023-04-29T14:15:39;30.50;42.60
16347;DHT22;8283;48.504;13.734;2023-04-29T14:18:24;30.30;42.80
16347;DHT22;8283;48.504;13.734;2023-04-29T14:21:08;30.00;42.80
16347;DHT22;8283;48.504;13.734;2023-04-29T14:23:54;29.80;43.10
16347;DHT22;8283;48.504;13.734;2023-04-29T14:26:38;29.50;43.10
16347;DHT22;8283;48.504;13.734;2023-04-29T14:29:23;29.20;43.20
16347;DHT22;8283;48.504;13.734;2023-04-29T14:32:07;29.00;43.70
16347;DHT22;8283;48.504;13.734;2023-04-29T14:34:52;28.80;43.80
16347;DHT22;8283;48.504;13.734;2023-04-29T14:37:36;28.70;44.00
16347;DHT22;8283;48.504;13.734;2023-04-29T14:40:20;28.50;44.20
16347;DHT22;8283;48.504;13.734;2023-04-29T14:43:05;28.50;44.90
16347;DHT22;8283;48.504;13.734;2023-04-29T14:45:50;28.50;45.20
16347;DHT22;8283;48.504;13.734;2023-04-29T14:48:34;28.60;45.40
16347;DHT22;8283;48.504;13.734;2023-04-29T14:51:19;28.60;44.90
16347;DHT22;8283;48.504;13.734;2023-04-29T14:54:04;28.60;44.70
16347;DHT22;8283;48.504;13.734;2023-04-29T14:56:48;28.60;44.80
16347;DHT22;8283;48.504;13.734;2023-04-29T14:59:33;28.60;44.60
16347;DHT22;8283;48.504;13.734;2023-04-29T15:02:17;28.50;44.70
16347;DHT22;8283;48.504;13.734;2023-04-29T15:05:01;28.40;44.90
16347;DHT22;8283;48.504;13.734;2023-04-29T15:07:47;28.30;45.40
16347;DHT22;8283;48.504;13.734;2023-04-29T15:10:31;28.40;45.90
16347;DHT22;8283;48.504;13.734;2023-04-29T15:13:16;28.60;46.20
16347;DHT22;8283;48.504;13.734;2023-04-29T15:16:01;28.70;46.20
16347;DHT22;8283;48.504;13.734;2023-04-29T15:18:45;28.90;45.60
16347;DHT22;8283;48.504;13.734;2023-04-29T15:21:29;29.00;45.50
16347;DHT22;8283;48.504;13.734;2023-04-29T15:24:16;29.10;45.10
16347;DHT22;8283;48.504;13.734;2023-04-29T15:27:01;29.10;45.00
16347;DHT22;8283;48.504;13.734;2023-04-29T15:29:45;29.20;45.10
16347;DHT22;8283;48.504;13.734;2023-04-29T15:32:30;29.20;45.30
16347;DHT22;8283;48.504;13.734;2023-04-29T15:35:15;29.20;45.10
16347;DHT22;8283;48.504;13.734;2023-04-29T15:37:59;29.20;45.00
16347;DHT22;8283;48.504;13.734;2023-04-29T15:40:44;29.30;45.00
16347;DHT22;8283;48.504;13.734;2023-04-29T15:43:29;29.30;44.70
16347;DHT22;8283;48.504;13.734;2023-04-29T15:46:15;29.30;44.70
16347;DHT22;8283;48.504;13.734;2023-04-29T15:48:59;29.20;44.40
16347;DHT22;8283;48.504;13.734;2023-04-29T15:51:44;29.10;44.50
16347;DHT22;8283;48.504;13.734;2023-04-29T15:54:28;28.90;44.30
16347;DHT22;8283;48.504;13.734;2023-04-29T15:57:12;28.80;44.50
16347;DHT22;8283;48.504;13.734;2023-04-29T15:59:56;28.60;44.70
16347;DHT22;8283;48.504;13.734;2023-04-29T16:02:40;28.40;44.60
16347;DHT22;8283;48.504;13.734;2023-04-29T16:05:25;28.20;44.80
16347;DHT22;8283;48.504;13.734;2023-04-29T16:08:09;28.00;44.80
16347;DHT22;8283;48.504;13.734;2023-04-29T16:10:54;27.80;44.90
16347;DHT22;8283;48.504;13.734;2023-04-29T16:13:39;27.60;45.20
16347;DHT22;8283;48.504;13.734;2023-04-29T16:16:23;27.50;45.40
16347;DHT22;8283;48.504;13.734;2023-04-29T16:19:08;27.40;45.70
16347;DHT22;8283;48.504;13.734;2023-04-29T16:21:53;27.40;45.90
16347;DHT22;8283;48.504;13.734;2023-04-29T16:24:38;27.30;46.10
16347;DHT22;8283;48.504;13.734;2023-04-29T16:27:22;27.20;46.00
16347;DHT22;8283;48.504;13.734;2023-04-29T16:30:07;27.20;45.90
16347;DHT22;8283;48.504;13.734;2023-04-29T16:32:51;27.10;45.50
16347;DHT22;8283;48.504;13.734;2023-04-29T16:35:36;27.00;45.40
16347;DHT22;8283;48.504;13.734;2023-04-29T16:38:20;27.00;45.20
16347;DHT22;8283;48.504;13.734;2023-04-29T16:41:05;26.80;45.10
16347;DHT22;8283;48.504;13.734;2023-04-29T16:43:51;26.80;45.20
16347;DHT22;8283;48.504;13.734;2023-04-29T16:46:36;26.60;45.30
16347;DHT22;8283;48.504;13.734;2023-04-29T16:49:23;26.50;45.50
16347;DHT22;8283;48.504;13.734;2023-04-29T16:52:11;26.40;46.10
16347;DHT22;8283;48.504;13.734;2023-04-29T16:54:58;26.40;46.00
16347;DHT22;8283;48.504;13.734;2023-04-29T16:57:44;26.30;46.00
16347;DHT22;8283;48.504;13.734;2023-04-29T17:00:28;26.10;46.00
16347;DHT22;8283;48.504;13.734;2023-04-29T17:03:13;26.10;46.30
16347;DHT22;8283;48.504;13.734;2023-04-29T17:05:58;26.10;46.30
16347;DHT22;8283;48.504;13.734;2023-04-29T17:08:42;26.10;46.40
16347;DHT22;8283;48.504;13.734;2023-04-29T17:11:27;25.90;46.50
16347;DHT22;8283;48.504;13.734;2023-04-29T17:14:12;25.80;46.80
16347;DHT22;8283;48.504;13.734;2023-04-29T17:16:57;25.80;47.10
16347;DHT22;8283;48.504;13.734;2023-04-29T17:19:41;25.70;46.80
16347;DHT22;8283;48.504;13.734;2023-04-29T17:22:26;25.70;46.90
16347;DHT22;8283;48.504;13.734;2023-04-29T17:25:10;25.70;46.80
16347;DHT22;8283;48.504;13.734;2023-04-29T17:27:57;25.70;46.80
16347;DHT22;8283;48.504;13.734;2023-04-29T17:30:42;25.50;46.70
16347;DHT22;8283;48.504;13.734;2023-04-29T17:33:27;25.50;46.60
16347;DHT22;8283;48.504;13.734;2023-04-29T17:36:17;25.40;46.60
16347;DHT22;8283;48.504;13.734;2023-04-29T17:39:01;25.40;46.50
16347;DHT22;8283;48.504;13.734;2023-04-29T17:41:45;25.20;46.60